Time;durP1;ratioP1;P1;durP2;ratioP2;P2;SDS_P1;SDS_P2;PMS_P1;PMS_P2;Temp;Humidity;BMP_temperature;BMP_pressure;BME280_temperature;BME280_humidity;BME280_pressure;Samples;Min_cycle;Max_cycle;Signal;HPM_P1;HPM_P2
2023/10/14 00:02:24;;;;;;;;;;;13.60;99.90;;;;;;4863732;29;19928;-86
2023/10/14 00:04:53;;;;;;;;;;;13.60;99.90;;;;;;4864400;29;19971;-89
2023/10/14 00:07:25;;;;;;;;;;;13.60;99.90;;;;;;4863084;29;19928;-87
2023/10/14 00:09:51;;;;;;;;;;;13.60;99.90;;;;;;4864377;29;19928;-85
2023/10/14 00:12:17;;;;;;;;;;;13.60;99.90;;;;;;4863452;29;19928;-86
2023/10/14 00:14:46;;;;;;;;;;;13.60;99.90;;;;;;4864770;29;19935;-87
2023/10/14 00:17:18;;;;;;;;;;;13.60;99.90;;;;;;4864015;29;19935;-85
2023/10/14 00:19:49;;;;;;;;;;;13.60;99.90;;;;;;4864922;29;20018;-85
2023/10/14 00:22:15;;;;;;;;;;;13.60;99.90;;;;;;4863139;29;19932;-85
2023/10/14 00:24:43;;;;;;;;;;;13.60;99.90;;;;;;4862827;29;19928;-87
2023/10/14 00:27:08;;;;;;;;;;;13.60;99.90;;;;;;4862924;29;20463;-85
2023/10/14 00:29:34;;;;;;;;;;;13.60;99.90;;;;;;4847808;29;20023;-85
2023/10/14 00:32:03;;;;;;;;;;;13.60;99.90;;;;;;4862961;29;19951;-84
2023/10/14 00:34:29;;;;;;;;;;;13.50;99.90;;;;;;4863173;29;19928;-86
2023/10/14 00:36:58;;;;;;;;;;;13.40;99.90;;;;;;4863131;29;20024;-84
2023/10/14 00:39:26;;;;;;;;;;;13.40;99.90;;;;;;4848130;29;19928;-85
2023/10/14 00:41:53;;;;;;;;;;;13.40;99.90;;;;;;4863093;29;19928;-85
2023/10/14 00:44:19;;;;;;;;;;;13.40;99.90;;;;;;4863075;29;19928;-84
2023/10/14 00:46:48;;;;;;;;;;;13.30;99.90;;;;;;4864367;29;19972;-85
2023/10/14 00:49:15;;;;;;;;;;;13.30;99.90;;;;;;4862692;29;20015;-88
2023/10/14 00:51:44;;;;;;;;;;;13.20;99.90;;;;;;4863649;29;19951;-86
2023/10/14 00:54:36;;;;;;;;;;;13.20;99.90;;;;;;4862370;29;19932;-84
2023/10/14 00:57:05;;;;;;;;;;;13.20;99.90;;;;;;4862406;29;19935;-84
2023/10/14 00:59:30;;;;;;;;;;;13.10;99.90;;;;;;4863445;29;19928;-85
2023/10/14 01:01:58;;;;;;;;;;;13.10;99.90;;;;;;4862592;29;19939;-85
2023/10/14 01:04:32;;;;;;;;;;;13.10;99.90;;;;;;4862187;29;19967;-85
2023/10/14 01:07:12;;;;;;;;;;;13.00;99.90;;;;;;4862582;29;20328;-86
2023/10/14 01:12:06;;;;;;;;;;;13.00;99.90;;;;;;4863428;29;19929;-86
2023/10/14 01:14:33;;;;;;;;;;;13.00;99.90;;;;;;4862357;29;19981;-87
2023/10/14 01:16:59;;;;;;;;;;;12.90;99.90;;;;;;4863776;29;20305;-86
2023/10/14 01:19:24;;;;;;;;;;;12.90;99.90;;;;;;4846750;29;20019;-85
2023/10/14 01:21:53;;;;;;;;;;;12.90;99.90;;;;;;4862289;29;20018;-88
2023/10/14 01:24:18;;;;;;;;;;;12.80;99.90;;;;;;4863665;29;19928;-86
2023/10/14 01:26:52;;;;;;;;;;;12.80;99.90;;;;;;4862409;29;19928;-87
2023/10/14 01:29:26;;;;;;;;;;;12.80;99.90;;;;;;4863431;29;20329;-86
2023/10/14 01:32:23;;;;;;;;;;;12.70;99.90;;;;;;4863066;29;19928;-86
2023/10/14 01:34:55;;;;;;;;;;;12.60;99.90;;;;;;4856486;29;19985;-85
2023/10/14 01:37:20;;;;;;;;;;;12.60;99.90;;;;;;4847657;29;20372;-90
2023/10/14 01:39:49;;;;;;;;;;;12.50;99.90;;;;;;4862967;29;19986;-85
2023/10/14 01:42:16;;;;;;;;;;;12.40;99.90;;;;;;4861678;29;19935;-86
2023/10/14 01:44:41;;;;;;;;;;;12.40;99.90;;;;;;4862772;29;19934;-87
2023/10/14 01:47:08;;;;;;;;;;;12.30;99.90;;;;;;4863211;29;20019;-88
2023/10/14 01:49:36;;;;;;;;;;;12.20;99.90;;;;;;4861707;29;19928;-87
2023/10/14 01:52:06;;;;;;;;;;;12.10;99.90;;;;;;4862552;29;19935;-87
2023/10/14 01:54:32;;;;;;;;;;;12.10;99.90;;;;;;4862124;29;19932;-85
2023/10/14 01:56:59;;;;;;;;;;;11.90;99.90;;;;;;4846831;29;19976;-86
2023/10/14 01:59:27;;;;;;;;;;;11.80;99.90;;;;;;4871951;29;20031;-86
2023/10/14 02:01:57;;;;;;;;;;;11.70;99.90;;;;;;4871338;29;20392;-86
2023/10/14 02:04:23;;;;;;;;;;;11.60;99.90;;;;;;4869622;29;19935;-86
2023/10/14 02:07:02;;;;;;;;;;;11.60;99.90;;;;;;4868715;29;19928;-86
2023/10/14 02:09:29;;;;;;;;;;;11.50;99.90;;;;;;4866914;29;19928;-86
2023/10/14 02:11:55;;;;;;;;;;;11.40;99.90;;;;;;4847678;29;19928;-84
2023/10/14 02:14:22;;;;;;;;;;;11.40;99.90;;;;;;4861741;29;19928;-85
2023/10/14 02:16:48;;;;;;;;;;;11.40;99.90;;;;;;4861251;29;19985;-85
2023/10/14 02:20:06;;;;;;;;;;;11.40;99.90;;;;;;4862168;29;19928;-86
2023/10/14 02:22:03;;;;;;;;;;;11.40;99.90;;;;;;4855766;29;20288;-86
2023/10/14 02:24:29;;;;;;;;;;;11.40;99.90;;;;;;4862138;29;19928;-86
2023/10/14 02:27:03;;;;;;;;;;;11.40;99.90;;;;;;4862065;29;19928;-88
2023/10/14 02:29:29;;;;;;;;;;;11.30;99.90;;;;;;4861593;29;20290;-86
2023/10/14 02:32:00;;;;;;;;;;;11.30;99.90;;;;;;4862077;29;19935;-86
2023/10/14 02:34:27;;;;;;;;;;;11.20;99.90;;;;;;4861182;29;19978;-86
2023/10/14 02:36:53;;;;;;;;;;;11.20;99.90;;;;;;4860890;29;19928;-85
2023/10/14 02:39:26;;;;;;;;;;;11.10;99.90;;;;;;4861013;29;19928;-86
2023/10/14 02:42:15;;;;;;;;;;;11.10;99.90;;;;;;4860681;29;19928;-86
2023/10/14 02:44:51;;;;;;;;;;;11.00;99.90;;;;;;4861395;29;19981;-86
2023/10/14 02:47:19;;;;;;;;;;;10.90;99.90;;;;;;4861296;29;19936;-85
2023/10/14 02:49:53;;;;;;;;;;;10.90;99.90;;;;;;4861196;29;19928;-85
2023/10/14 02:52:19;;;;;;;;;;;10.80;99.90;;;;;;4861680;29;19980;-85
2023/10/14 02:54:54;;;;;;;;;;;10.70;99.90;;;;;;4861647;29;19928;-85
2023/10/14 02:59:46;;;;;;;;;;;10.70;99.90;;;;;;4860769;29;19938;-86
2023/10/14 03:02:39;;;;;;;;;;;10.60;99.90;;;;;;4862146;29;19928;-86
2023/10/14 03:07:33;;;;;;;;;;;10.60;99.90;;;;;;4862277;29;19981;-85
2023/10/14 03:12:48;;;;;;;;;;;10.50;99.90;;;;;;4867687;29;19932;-85
2023/10/14 03:15:23;;;;;;;;;;;10.50;99.90;;;;;;4867653;29;19929;-85
2023/10/14 03:17:56;;;;;;;;;;;10.50;99.90;;;;;;4867170;29;19956;-85
2023/10/14 03:23:10;;;;;;;;;;;10.40;99.90;;;;;;4866442;29;19935;-85
2023/10/14 03:25:37;;;;;;;;;;;10.40;99.90;;;;;;4868246;29;19939;-85
2023/10/14 03:28:13;;;;;;;;;;;10.30;99.90;;;;;;4866563;29;19932;-84
2023/10/14 03:30:44;;;;;;;;;;;10.30;99.90;;;;;;4866503;29;20376;-86
2023/10/14 03:33:10;;;;;;;;;;;10.30;99.90;;;;;;4867549;29;19963;-85
2023/10/14 03:35:36;;;;;;;;;;;10.30;99.90;;;;;;4866685;29;19983;-85
2023/10/14 03:38:14;;;;;;;;;;;10.30;99.90;;;;;;4867383;29;19944;-87
2023/10/14 03:43:15;;;;;;;;;;;10.30;99.90;;;;;;4867219;29;19928;-84
2023/10/14 03:45:56;;;;;;;;;;;10.30;99.90;;;;;;4867457;29;20022;-87
2023/10/14 03:48:29;;;;;;;;;;;10.30;99.90;;;;;;4867545;29;20412;-84
2023/10/14 03:51:04;;;;;;;;;;;10.30;99.90;;;;;;4851493;29;19928;-86
2023/10/14 03:53:32;;;;;;;;;;;10.30;99.90;;;;;;4867300;29;19935;-83
2023/10/14 03:56:00;;;;;;;;;;;10.30;99.90;;;;;;4866151;29;19928;-87
2023/10/14 03:58:28;;;;;;;;;;;10.20;99.90;;;;;;4866708;29;20061;-86
2023/10/14 04:00:56;;;;;;;;;;;10.20;99.90;;;;;;4866422;29;19928;-85
2023/10/14 04:03:40;;;;;;;;;;;10.20;99.90;;;;;;4866252;29;19928;-84
2023/10/14 04:06:08;;;;;;;;;;;10.20;99.90;;;;;;4867861;29;19932;-84
2023/10/14 04:08:39;;;;;;;;;;;10.20;99.90;;;;;;4866223;29;20015;-84
2023/10/14 04:11:13;;;;;;;;;;;10.10;99.90;;;;;;4851089;29;19935;-85
2023/10/14 04:13:50;;;;;;;;;;;10.10;99.90;;;;;;4867305;29;20007;-84
2023/10/14 04:16:18;;;;;;;;;;;10.00;99.90;;;;;;4866461;29;19939;-86
2023/10/14 04:18:46;;;;;;;;;;;10.10;99.90;;;;;;4866378;29;20014;-86
2023/10/14 04:21:25;;;;;;;;;;;10.00;99.90;;;;;;4862775;29;20345;-84
2023/10/14 04:24:19;;;;;;;;;;;10.00;99.90;;;;;;4863380;29;19993;-84
2023/10/14 04:26:48;;;;;;;;;;;10.00;99.90;;;;;;4864022;29;19928;-84
2023/10/14 04:29:34;;;;;;;;;;;10.00;99.90;;;;;;4864390;29;19928;-85
2023/10/14 04:32:14;;;;;;;;;;;10.00;99.90;;;;;;4864000;29;20272;-84
2023/10/14 04:34:41;;;;;;;;;;;10.00;99.90;;;;;;4864030;29;19928;-84
2023/10/14 04:37:07;;;;;;;;;;;10.00;99.90;;;;;;4863419;29;19932;-84
2023/10/14 04:39:33;;;;;;;;;;;9.90;99.90;;;;;;4862752;29;19928;-82
2023/10/14 04:42:44;;;;;;;;;;;9.90;99.90;;;;;;4862886;29;19934;-86
2023/10/14 04:44:53;;;;;;;;;;;9.90;99.90;;;;;;4853382;29;19934;-83
2023/10/14 04:47:36;;;;;;;;;;;9.80;99.90;;;;;;4863639;29;19928;-84
2023/10/14 04:50:10;;;;;;;;;;;9.80;99.90;;;;;;4847790;29;19975;-85
2023/10/14 04:52:41;;;;;;;;;;;9.80;99.90;;;;;;4848072;29;19932;-84
2023/10/14 04:55:09;;;;;;;;;;;9.80;99.90;;;;;;4863079;29;19932;-82
2023/10/14 04:57:40;;;;;;;;;;;9.70;99.90;;;;;;4863216;29;19984;-85
2023/10/14 05:00:08;;;;;;;;;;;9.70;99.90;;;;;;4847707;29;19932;-84
2023/10/14 05:02:39;;;;;;;;;;;9.70;99.90;;;;;;4846773;29;20253;-84
2023/10/14 05:05:07;;;;;;;;;;;9.60;99.90;;;;;;4863308;29;19951;-83
2023/10/14 05:07:35;;;;;;;;;;;9.60;99.90;;;;;;4862887;29;19962;-83
2023/10/14 05:10:08;;;;;;;;;;;9.60;99.90;;;;;;4862295;29;19975;-85
2023/10/14 05:12:40;;;;;;;;;;;9.60;99.90;;;;;;4864233;29;19928;-84
2023/10/14 05:15:27;;;;;;;;;;;9.70;99.90;;;;;;4862604;29;19932;-90
2023/10/14 05:17:53;;;;;;;;;;;9.60;99.90;;;;;;4847821;29;20288;-83
2023/10/14 05:20:47;;;;;;;;;;;9.70;99.90;;;;;;4862526;29;19929;-84
2023/10/14 05:23:13;;;;;;;;;;;9.60;99.90;;;;;;4862083;29;20001;-83
2023/10/14 05:25:39;;;;;;;;;;;9.70;99.90;;;;;;4862455;29;19980;-83
2023/10/14 05:28:06;;;;;;;;;;;9.70;99.90;;;;;;4846831;29;19928;-81
2023/10/14 05:30:33;;;;;;;;;;;9.60;99.90;;;;;;4862130;29;19928;-82
2023/10/14 05:33:06;;;;;;;;;;;9.60;99.90;;;;;;4862555;29;20069;-81
2023/10/14 05:35:42;;;;;;;;;;;9.60;99.90;;;;;;4862582;29;20014;-84
2023/10/14 05:38:11;;;;;;;;;;;9.60;99.90;;;;;;4862891;29;19928;-82
2023/10/14 05:40:40;;;;;;;;;;;9.50;99.90;;;;;;4861965;29;20493;-84
2023/10/14 05:43:06;;;;;;;;;;;9.60;99.90;;;;;;4862264;29;19932;-82
2023/10/14 05:45:38;;;;;;;;;;;9.50;99.90;;;;;;4863058;29;19934;-84
2023/10/14 05:48:04;;;;;;;;;;;9.50;99.90;;;;;;4861532;29;19934;-82
2023/10/14 05:50:35;;;;;;;;;;;9.50;99.90;;;;;;4861576;29;19928;-83
2023/10/14 05:53:01;;;;;;;;;;;9.50;99.90;;;;;;4861689;29;19928;-82
2023/10/14 05:55:29;;;;;;;;;;;9.50;99.90;;;;;;4862409;29;20339;-85
2023/10/14 05:58:00;;;;;;;;;;;9.50;99.90;;;;;;4846099;29;19928;-85
2023/10/14 06:00:27;;;;;;;;;;;9.50;99.90;;;;;;4862229;29;19928;-84
2023/10/14 06:02:58;;;;;;;;;;;9.50;99.90;;;;;;4845689;29;19928;-87
2023/10/14 06:05:31;;;;;;;;;;;9.50;99.90;;;;;;4862190;29;19929;-82
2023/10/14 06:08:00;;;;;;;;;;;9.50;99.90;;;;;;4860998;29;20374;-83
2023/10/14 06:10:36;;;;;;;;;;;9.50;99.90;;;;;;4846562;29;19935;-83
2023/10/14 06:13:05;;;;;;;;;;;9.50;99.90;;;;;;4861607;29;20023;-82
2023/10/14 06:15:36;;;;;;;;;;;9.50;99.90;;;;;;4862200;29;19936;-82
2023/10/14 06:18:01;;;;;;;;;;;9.50;99.90;;;;;;4862607;29;20342;-84
2023/10/14 06:20:27;;;;;;;;;;;9.50;99.90;;;;;;4861129;29;19971;-85
2023/10/14 06:22:57;;;;;;;;;;;9.50;99.90;;;;;;4861045;29;20398;-84
2023/10/14 06:25:22;;;;;;;;;;;9.50;99.90;;;;;;4845974;29;19928;-83
2023/10/14 06:27:48;;;;;;;;;;;9.50;99.90;;;;;;4862195;29;19935;-84
2023/10/14 06:30:21;;;;;;;;;;;9.50;99.90;;;;;;4861956;29;19935;-84
2023/10/14 06:32:47;;;;;;;;;;;9.60;99.90;;;;;;4861120;29;19932;-83
2023/10/14 06:35:14;;;;;;;;;;;9.60;99.90;;;;;;4860615;29;20366;-83
2023/10/14 06:37:42;;;;;;;;;;;9.60;99.90;;;;;;4860556;29;19928;-87
2023/10/14 06:40:12;;;;;;;;;;;9.60;99.90;;;;;;4845406;29;19928;-84
2023/10/14 06:42:40;;;;;;;;;;;9.60;99.90;;;;;;4860118;29;19928;-84
2023/10/14 06:45:06;;;;;;;;;;;9.60;99.90;;;;;;4860453;29;19932;-84
2023/10/14 06:47:31;;;;;;;;;;;9.60;99.90;;;;;;4861612;29;19939;-84
2023/10/14 06:49:57;;;;;;;;;;;9.70;99.90;;;;;;4860405;29;19928;-85
2023/10/14 06:52:23;;;;;;;;;;;9.60;99.90;;;;;;4861480;29;19928;-83
2023/10/14 06:54:51;;;;;;;;;;;9.70;99.90;;;;;;4860438;29;19939;-84
2023/10/14 06:57:16;;;;;;;;;;;9.70;99.90;;;;;;4861285;29;19932;-85
2023/10/14 06:59:42;;;;;;;;;;;9.70;99.90;;;;;;4860908;29;20298;-83
2023/10/14 07:02:10;;;;;;;;;;;9.80;99.90;;;;;;4860444;29;20053;-87
2023/10/14 07:04:38;;;;;;;;;;;9.80;99.90;;;;;;4859649;29;20183;-82
2023/10/14 07:07:07;;;;;;;;;;;9.90;99.90;;;;;;4860134;29;20355;-83
2023/10/14 07:09:34;;;;;;;;;;;9.90;99.90;;;;;;4860279;29;20360;-82
2023/10/14 07:11:59;;;;;;;;;;;10.00;99.90;;;;;;4860822;29;19928;-84
2023/10/14 07:14:25;;;;;;;;;;;10.00;99.90;;;;;;4861454;29;19975;-88
2023/10/14 07:16:51;;;;;;;;;;;10.00;99.90;;;;;;4861269;29;19988;-83
2023/10/14 07:19:18;;;;;;;;;;;10.10;99.90;;;;;;4861459;29;19975;-83
2023/10/14 07:21:44;;;;;;;;;;;10.10;99.90;;;;;;4861390;29;19935;-82
2023/10/14 07:24:10;;;;;;;;;;;10.20;99.90;;;;;;4861206;29;19928;-82
2023/10/14 07:26:39;;;;;;;;;;;10.20;99.90;;;;;;4861785;29;20392;-84
2023/10/14 07:29:05;;;;;;;;;;;10.30;99.90;;;;;;4861082;29;20241;-83
2023/10/14 07:31:31;;;;;;;;;;;10.30;99.90;;;;;;4861575;29;19929;-83
2023/10/14 07:34:02;;;;;;;;;;;10.40;99.90;;;;;;4861446;29;19984;-82
2023/10/14 07:36:31;;;;;;;;;;;10.40;99.90;;;;;;4860468;29;20280;-83
2023/10/14 07:39:02;;;;;;;;;;;10.50;99.90;;;;;;4860240;29;20010;-84
2023/10/14 07:41:30;;;;;;;;;;;10.60;99.90;;;;;;4861774;29;20040;-83
2023/10/14 07:43:56;;;;;;;;;;;10.70;99.90;;;;;;4859954;29;19939;-85
2023/10/14 07:46:23;;;;;;;;;;;10.70;99.90;;;;;;4861145;29;19928;-83
2023/10/14 07:48:53;;;;;;;;;;;10.70;99.90;;;;;;4860488;29;19935;-82
2023/10/14 07:51:18;;;;;;;;;;;10.80;99.90;;;;;;4845423;29;20264;-83
2023/10/14 07:53:44;;;;;;;;;;;10.90;99.90;;;;;;4860926;29;19928;-83
2023/10/14 07:56:09;;;;;;;;;;;11.00;99.90;;;;;;4863004;29;19932;-82
2023/10/14 07:58:36;;;;;;;;;;;11.00;99.90;;;;;;4864528;29;19934;-86
2023/10/14 08:01:06;;;;;;;;;;;11.10;99.90;;;;;;4866167;29;19929;-83
2023/10/14 08:03:31;;;;;;;;;;;11.20;99.90;;;;;;4869022;29;19932;-86
2023/10/14 08:06:05;;;;;;;;;;;11.30;99.90;;;;;;4869161;29;19928;-82
2023/10/14 08:08:31;;;;;;;;;;;11.30;99.90;;;;;;4867825;29;19929;-88
2023/10/14 08:10:57;;;;;;;;;;;11.40;99.90;;;;;;4867486;29;19932;-83
2023/10/14 08:13:23;;;;;;;;;;;11.50;99.90;;;;;;4865390;29;19928;-85
2023/10/14 08:15:50;;;;;;;;;;;11.50;99.90;;;;;;4865204;29;20030;-88
2023/10/14 08:18:16;;;;;;;;;;;11.50;99.90;;;;;;4864623;29;20306;-82
2023/10/14 08:20:43;;;;;;;;;;;11.60;99.90;;;;;;4863472;29;19936;-82
2023/10/14 08:23:09;;;;;;;;;;;11.70;99.90;;;;;;4864971;29;19928;-90
2023/10/14 08:25:39;;;;;;;;;;;11.80;99.90;;;;;;4847784;29;19934;-85
2023/10/14 08:28:05;;;;;;;;;;;11.90;99.90;;;;;;4864094;29;19928;-83
2023/10/14 08:30:45;;;;;;;;;;;12.00;99.90;;;;;;4863909;29;20464;-83
2023/10/14 08:33:11;;;;;;;;;;;12.20;99.90;;;;;;4863764;29;19935;-83
2023/10/14 08:35:41;;;;;;;;;;;12.30;99.90;;;;;;4864448;29;19990;-86
2023/10/14 08:38:11;;;;;;;;;;;12.30;99.90;;;;;;4864310;29;19935;-84
2023/10/14 08:40:37;;;;;;;;;;;12.30;99.90;;;;;;4863818;29;19932;-82
2023/10/14 08:43:05;;;;;;;;;;;12.40;99.90;;;;;;4864463;29;19929;-86
2023/10/14 08:45:35;;;;;;;;;;;12.40;99.90;;;;;;4863741;29;19928;-82
2023/10/14 08:48:01;;;;;;;;;;;12.50;99.90;;;;;;4863628;29;19929;-83
2023/10/14 08:50:29;;;;;;;;;;;12.60;99.90;;;;;;4862804;29;19939;-83
2023/10/14 08:53:00;;;;;;;;;;;12.50;99.90;;;;;;4862683;29;19935;-83
2023/10/14 08:55:28;;;;;;;;;;;12.40;99.90;;;;;;4862600;29;19934;-83
2023/10/14 08:58:01;;;;;;;;;;;12.30;99.90;;;;;;4862870;29;19936;-83
2023/10/14 09:00:29;;;;;;;;;;;12.30;99.90;;;;;;4863032;29;19928;-82
2023/10/14 09:02:55;;;;;;;;;;;12.20;99.90;;;;;;4861917;29;20379;-83
2023/10/14 09:05:23;;;;;;;;;;;12.10;99.90;;;;;;4863103;29;19934;-81
2023/10/14 09:07:49;;;;;;;;;;;12.10;99.90;;;;;;4863642;29;19928;-82
2023/10/14 09:10:19;;;;;;;;;;;12.00;99.90;;;;;;4862407;29;19986;-82
2023/10/14 09:12:52;;;;;;;;;;;12.10;99.90;;;;;;4862151;29;19936;-87
2023/10/14 09:15:20;;;;;;;;;;;12.00;99.90;;;;;;4863137;29;19928;-89
2023/10/14 09:17:46;;;;;;;;;;;12.00;99.90;;;;;;4863086;29;19932;-82
2023/10/14 09:20:27;;;;;;;;;;;11.80;99.90;;;;;;4862172;29;20407;-82
2023/10/14 09:23:15;;;;;;;;;;;11.80;99.90;;;;;;4862803;29;20303;-86
2023/10/14 09:25:52;;;;;;;;;;;11.90;99.90;;;;;;4847134;29;20062;-82
2023/10/14 09:28:21;;;;;;;;;;;12.10;99.90;;;;;;4862867;29;19978;-82
2023/10/14 09:30:50;;;;;;;;;;;12.50;99.90;;;;;;4861595;29;19928;-84
2023/10/14 09:33:19;;;;;;;;;;;13.10;99.90;;;;;;4861549;29;19972;-83
2023/10/14 09:35:48;;;;;;;;;;;13.70;99.90;;;;;;4861485;29;19989;-82
2023/10/14 09:38:18;;;;;;;;;;;13.90;99.90;;;;;;4862640;29;19928;-83
2023/10/14 09:40:47;;;;;;;;;;;14.20;99.90;;;;;;4862714;29;19991;-83
2023/10/14 09:43:13;;;;;;;;;;;14.60;99.90;;;;;;4862282;29;19935;-82
2023/10/14 09:45:40;;;;;;;;;;;14.70;99.90;;;;;;4863122;29;19928;-82
2023/10/14 09:48:06;;;;;;;;;;;14.80;99.90;;;;;;4861410;29;19928;-83
2023/10/14 09:50:32;;;;;;;;;;;15.20;99.90;;;;;;4865872;29;19936;-82
2023/10/14 09:53:00;;;;;;;;;;;15.30;99.90;;;;;;4866786;29;19928;-83
2023/10/14 09:55:26;;;;;;;;;;;15.50;99.90;;;;;;4866694;29;20269;-82
2023/10/14 09:57:52;;;;;;;;;;;15.90;99.90;;;;;;4865179;29;19928;-80
2023/10/14 10:00:18;;;;;;;;;;;16.10;99.90;;;;;;4866000;29;19928;-83
2023/10/14 10:02:51;;;;;;;;;;;16.00;99.90;;;;;;4866346;29;19963;-80
2023/10/14 10:05:20;;;;;;;;;;;15.90;99.90;;;;;;4849362;29;20325;-83
2023/10/14 10:07:54;;;;;;;;;;;15.50;99.90;;;;;;4865293;29;19977;-82
2023/10/14 10:10:26;;;;;;;;;;;14.80;99.90;;;;;;4867133;29;19928;-82
2023/10/14 10:12:59;;;;;;;;;;;14.00;99.90;;;;;;4865771;29;20070;-81
2023/10/14 10:15:25;;;;;;;;;;;13.40;99.90;;;;;;4864994;29;20011;-80
2023/10/14 10:18:02;;;;;;;;;;;13.00;99.90;;;;;;4864007;29;19968;-81
2023/10/14 10:20:29;;;;;;;;;;;13.00;99.90;;;;;;4848656;29;19928;-81
2023/10/14 10:22:56;;;;;;;;;;;13.00;99.90;;;;;;4848445;29;20331;-82
2023/10/14 10:25:47;;;;;;;;;;;13.30;99.90;;;;;;4848453;29;19928;-83
2023/10/14 10:28:28;;;;;;;;;;;13.50;99.90;;;;;;4864453;29;20373;-82
2023/10/14 10:31:09;;;;;;;;;;;13.90;99.90;;;;;;4865999;29;20015;-83
2023/10/14 10:34:01;;;;;;;;;;;14.10;99.90;;;;;;4865848;29;19992;-84
2023/10/14 10:36:28;;;;;;;;;;;14.30;99.90;;;;;;4865071;29;20360;-82
2023/10/14 10:38:55;;;;;;;;;;;14.50;99.90;;;;;;4866264;29;19932;-82
2023/10/14 10:41:39;;;;;;;;;;;14.70;99.90;;;;;;4850713;29;19967;-83
2023/10/14 10:44:05;;;;;;;;;;;14.80;99.90;;;;;;4866925;29;19935;-83
2023/10/14 10:46:41;;;;;;;;;;;14.80;99.90;;;;;;4865008;29;19935;-80
2023/10/14 10:49:07;;;;;;;;;;;14.60;99.90;;;;;;4865139;29;20284;-82
2023/10/14 10:51:42;;;;;;;;;;;14.50;99.90;;;;;;4849933;29;19928;-85
2023/10/14 10:54:09;;;;;;;;;;;14.50;99.90;;;;;;4864829;29;19928;-81
2023/10/14 10:56:34;;;;;;;;;;;14.50;99.90;;;;;;4864288;29;19931;-85
2023/10/14 10:59:04;;;;;;;;;;;14.40;99.90;;;;;;4864579;29;20376;-82
2023/10/14 11:01:33;;;;;;;;;;;14.50;99.90;;;;;;4864382;29;19929;-84
2023/10/14 11:03:59;;;;;;;;;;;14.50;99.90;;;;;;4864184;29;19928;-83
2023/10/14 11:06:25;;;;;;;;;;;14.50;99.90;;;;;;4865807;29;19935;-81
2023/10/14 11:08:51;;;;;;;;;;;14.60;99.90;;;;;;4864340;29;19928;-88
2023/10/14 11:11:20;;;;;;;;;;;14.50;99.90;;;;;;4865946;29;19935;-82
2023/10/14 11:13:46;;;;;;;;;;;14.40;99.90;;;;;;4865336;29;20009;-83
2023/10/14 11:16:14;;;;;;;;;;;14.40;99.90;;;;;;4867322;29;20000;-88
2023/10/14 11:18:47;;;;;;;;;;;14.20;99.90;;;;;;4835933;29;20352;-86
2023/10/14 11:21:14;;;;;;;;;;;14.20;99.90;;;;;;4864417;29;19979;-83
2023/10/14 11:23:41;;;;;;;;;;;14.10;99.90;;;;;;4865009;29;19935;-84
2023/10/14 11:26:16;;;;;;;;;;;14.10;99.90;;;;;;4849122;29;19976;-83
2023/10/14 11:28:45;;;;;;;;;;;14.00;99.90;;;;;;4865796;29;19928;-81
2023/10/14 11:31:12;;;;;;;;;;;13.90;99.90;;;;;;4868573;29;19928;-83
2023/10/14 11:33:39;;;;;;;;;;;13.80;99.90;;;;;;4869206;29;20303;-82
2023/10/14 11:36:05;;;;;;;;;;;13.60;99.90;;;;;;4868787;29;19931;-81
2023/10/14 11:38:31;;;;;;;;;;;13.40;99.90;;;;;;4868992;29;19935;-82
2023/10/14 11:41:03;;;;;;;;;;;13.30;99.90;;;;;;4868917;29;19984;-83
2023/10/14 11:43:30;;;;;;;;;;;13.40;99.90;;;;;;4868807;29;20368;-82
2023/10/14 11:45:56;;;;;;;;;;;13.50;99.90;;;;;;4866975;29;19957;-83
2023/10/14 11:48:30;;;;;;;;;;;13.60;99.90;;;;;;4867830;29;19932;-81
2023/10/14 11:51:03;;;;;;;;;;;13.60;99.90;;;;;;4867528;29;20328;-84
2023/10/14 11:53:29;;;;;;;;;;;13.40;99.90;;;;;;4866849;29;20039;-79
2023/10/14 11:55:58;;;;;;;;;;;13.40;99.90;;;;;;4866839;29;19956;-83
2023/10/14 11:58:27;;;;;;;;;;;13.60;99.90;;;;;;4867679;29;19928;-81
2023/10/14 12:00:53;;;;;;;;;;;13.70;99.90;;;;;;4867970;29;19996;-83
2023/10/14 12:03:20;;;;;;;;;;;13.90;99.90;;;;;;4867740;29;20384;-82
2023/10/14 12:05:45;;;;;;;;;;;14.00;99.90;;;;;;4868324;29;20024;-84
2023/10/14 12:08:11;;;;;;;;;;;13.90;99.90;;;;;;4867560;29;19928;-79
2023/10/14 12:10:45;;;;;;;;;;;13.80;99.90;;;;;;4867617;29;19929;-82
2023/10/14 12:13:10;;;;;;;;;;;13.60;99.90;;;;;;4851878;29;19928;-80
2023/10/14 12:15:36;;;;;;;;;;;13.40;99.90;;;;;;4867149;29;19940;-80
2023/10/14 12:18:02;;;;;;;;;;;13.40;99.90;;;;;;4868395;29;20376;-84
2023/10/14 12:20:29;;;;;;;;;;;13.30;99.90;;;;;;4866285;29;19929;-81
2023/10/14 12:22:55;;;;;;;;;;;13.20;99.90;;;;;;4868364;29;19928;-83
2023/10/14 12:25:23;;;;;;;;;;;13.20;99.90;;;;;;4868333;29;19928;-83
2023/10/14 12:27:50;;;;;;;;;;;13.10;99.90;;;;;;4851645;29;20018;-82
2023/10/14 12:33:07;;;;;;;;;;;13.10;99.90;;;;;;4866130;29;19928;-86
2023/10/14 12:35:39;;;;;;;;;;;13.20;99.90;;;;;;4864175;29;19935;-82
2023/10/14 12:38:11;;;;;;;;;;;13.50;99.90;;;;;;4863900;29;20004;-84
2023/10/14 12:40:37;;;;;;;;;;;13.60;99.90;;;;;;4862453;29;19984;-83
2023/10/14 12:43:05;;;;;;;;;;;13.70;99.90;;;;;;4862786;29;19936;-83
2023/10/14 12:45:32;;;;;;;;;;;13.80;99.90;;;;;;4847661;29;19979;-84
2023/10/14 12:48:01;;;;;;;;;;;13.90;99.90;;;;;;4864068;29;19936;-83
2023/10/14 12:50:26;;;;;;;;;;;14.20;99.90;;;;;;4862688;29;19936;-83
2023/10/14 12:53:04;;;;;;;;;;;14.30;99.90;;;;;;4862722;29;19951;-87
2023/10/14 12:55:30;;;;;;;;;;;14.20;99.90;;;;;;4862809;29;19935;-82
2023/10/14 12:58:00;;;;;;;;;;;14.00;99.90;;;;;;4863016;29;20019;-85
2023/10/14 13:00:32;;;;;;;;;;;13.80;99.90;;;;;;4863252;29;19950;-83
2023/10/14 13:02:57;;;;;;;;;;;13.80;99.90;;;;;;4862904;29;19935;-83
2023/10/14 13:05:25;;;;;;;;;;;13.80;99.90;;;;;;4863453;29;19928;-83
2023/10/14 13:07:52;;;;;;;;;;;13.80;99.90;;;;;;4862748;29;19928;-84
2023/10/14 13:10:21;;;;;;;;;;;13.90;99.90;;;;;;4863272;29;20384;-85
2023/10/14 13:12:51;;;;;;;;;;;13.80;99.90;;;;;;4863196;29;19939;-82
2023/10/14 13:15:25;;;;;;;;;;;13.70;99.90;;;;;;4862093;29;20023;-82
2023/10/14 13:18:00;;;;;;;;;;;13.50;99.90;;;;;;4862623;29;19979;-84
2023/10/14 13:20:27;;;;;;;;;;;13.30;99.90;;;;;;4862638;29;20023;-86
2023/10/14 13:22:53;;;;;;;;;;;13.10;99.90;;;;;;4862105;29;19932;-83
2023/10/14 13:25:21;;;;;;;;;;;13.10;99.90;;;;;;4863057;29;20426;-88
2023/10/14 13:27:51;;;;;;;;;;;13.20;99.90;;;;;;4862506;29;19932;-84
2023/10/14 13:30:23;;;;;;;;;;;13.30;99.90;;;;;;4862473;29;20446;-82
2023/10/14 13:32:53;;;;;;;;;;;13.40;99.90;;;;;;4862979;29;19963;-83
2023/10/14 13:35:18;;;;;;;;;;;13.50;99.90;;;;;;4862973;29;19935;-83
2023/10/14 13:37:44;;;;;;;;;;;13.60;99.90;;;;;;4862744;29;19928;-81
2023/10/14 13:40:10;;;;;;;;;;;13.70;99.90;;;;;;4861879;29;20027;-83
2023/10/14 13:42:36;;;;;;;;;;;13.70;99.90;;;;;;4862456;29;19971;-83
2023/10/14 13:45:04;;;;;;;;;;;13.70;99.90;;;;;;4862925;29;20299;-85
2023/10/14 13:47:30;;;;;;;;;;;13.70;99.90;;;;;;4862026;29;20333;-82
2023/10/14 13:49:58;;;;;;;;;;;13.70;99.90;;;;;;4846688;29;19935;-82
2023/10/14 13:52:26;;;;;;;;;;;13.80;99.90;;;;;;4861701;29;20022;-83
2023/10/14 13:54:53;;;;;;;;;;;13.70;99.90;;;;;;4861956;29;19928;-83
2023/10/14 13:57:19;;;;;;;;;;;13.70;99.90;;;;;;4861627;29;19932;-83
2023/10/14 13:59:45;;;;;;;;;;;13.70;99.90;;;;;;4862469;29;19935;-86
2023/10/14 14:02:10;;;;;;;;;;;13.70;99.90;;;;;;4861922;29;20305;-83
2023/10/14 14:04:36;;;;;;;;;;;13.80;99.90;;;;;;4860994;29;19938;-83
2023/10/14 14:07:01;;;;;;;;;;;13.80;99.90;;;;;;4862000;29;19928;-84
2023/10/14 14:09:30;;;;;;;;;;;13.80;99.90;;;;;;4860735;29;19928;-86
2023/10/14 14:11:56;;;;;;;;;;;13.70;99.90;;;;;;4861029;29;20341;-87
2023/10/14 14:14:25;;;;;;;;;;;13.60;99.90;;;;;;4861445;29;19929;-85
2023/10/14 14:16:50;;;;;;;;;;;13.50;99.90;;;;;;4861717;29;19928;-82
2023/10/14 14:19:18;;;;;;;;;;;13.40;99.90;;;;;;4861715;29;20329;-86
2023/10/14 14:21:47;;;;;;;;;;;13.40;99.90;;;;;;4860976;29;19939;-83
2023/10/14 14:24:14;;;;;;;;;;;13.50;99.90;;;;;;4860578;29;19928;-84
2023/10/14 14:26:41;;;;;;;;;;;13.60;99.90;;;;;;4862074;29;20036;-83
2023/10/14 14:29:09;;;;;;;;;;;13.60;99.90;;;;;;4861030;29;19936;-84
2023/10/14 14:31:35;;;;;;;;;;;13.50;99.90;;;;;;4862012;29;20026;-83
2023/10/14 14:34:01;;;;;;;;;;;13.30;99.90;;;;;;4860941;29;20443;-83
2023/10/14 14:36:27;;;;;;;;;;;13.20;99.90;;;;;;4860972;29;19971;-83
2023/10/14 14:38:54;;;;;;;;;;;13.00;99.90;;;;;;4861766;29;19934;-84
2023/10/14 14:41:25;;;;;;;;;;;12.90;99.90;;;;;;4860884;29;19928;-84
2023/10/14 14:43:55;;;;;;;;;;;12.90;99.90;;;;;;4862125;29;19934;-84
2023/10/14 14:46:21;;;;;;;;;;;12.80;99.90;;;;;;4860735;29;19928;-86
2023/10/14 14:48:48;;;;;;;;;;;12.80;99.90;;;;;;4861186;29;19999;-84
2023/10/14 14:51:14;;;;;;;;;;;12.80;99.90;;;;;;4845570;29;19964;-85